To NAV CANADA Home Page Login to a new session Search on AWWS site Feedback and Comments Disclaimer Vers la page française équivalente Tips FAQ What's new on the site To the Forecasts and Observations / NOTAM section To "File a Flight Plan" website Publications and other links Update of the User's profile FIC Telephone Numbers My Weather Data Folder Route Weather Data Regional Weather Data Local Weather Data To the Forecasts and Observations / NOTAM section
Request Generated 04/23/2014 at 20:35:26 UTC . Weather information available at that time is displayed.

METAR/TAF

SAINT JOHN/NB    

METAR CYSJ 232000Z 10008KT 15SM FEW005 OVC017 10/09 A2942 RMK SF2SC6
SLP964 DENSITY ALT 400FT=
METAR CYSJ 231900Z 10009KT 15SM FEW004 OVC020 10/09 A2942 RMK SF1SC7
SLP964=
SPECI CYSJ 231851Z 10010KT 12SM FEW004 OVC019 10/09 A2942 RMK SF2SC6
SLP965=
SPECI CYSJ 231808Z 11009KT 15SM -SHRA FEW004 OVC020 10/09 A2943 RMK
SF2SC6 SLP968=
METAR CYSJ 231800Z 10009KT 15SM FEW004 SCT020 10/09 A2943 RMK SF2SC2
SLP968=

TAF CYSJ 231738Z 2318/2406 12010KT 6SM -SHRA SCT004 OVC020 TEMPO
2318/2324 2SM -DZ BR OVC004
FM240000 10010KT 2SM -SHRA -DZ BR OVC003
FM240400 09007KT 1/2SM -RA FG VV002 PROB30 2404/2406 1/4SM FG
VV001
RMK NXT FCST BY 240000Z=
Your time UTC time
Weather data provided by Environment Canada and NAV CANADA